Montgomery Regional (Dannelly Field) Airport
KMGM : now visible

Aeroporto :











RITROVATECI SU...

 
LOGIN :

Iscrizione | Disclaimer

   EN    FR    IT 

 









Sommario :    VFR   VFR Marginale   IFR   IFR Intensivo   IFR Molto Intensivo
Visibilità : 
Base nubi : 
>= 8 km
>= 3000ft
5 / 8 km
1000 / 3000 ft
1500m / 5 km
500 / 1000 ft
800 / 1500m
200 / 500 ft
< 800m
< 200 ft
Simboli :   Temporali  Nebbia  Neve Forte  Precipitazioni Forti  Vento > 20 kt






- Altitudine del aeroporto : 221 ft
- Codice IATA : MGM


KMGM - Montgomery Regional (Dannelly Field)

ULTIMO METAR :
  • 290053Z 35003KT 10SM CLR 16/12 A3009 RMK AO2 SLP187 T01560117

METARs OBSOLETI :
  • 282353Z 36004KT 10SM CLR 16/12 A3008 RMK AO2 SLP184 T01610122 10183 20161 53003
  • 282253Z 31004KT 10SM CLR 16/13 A3008 RMK AO2 SLP185 T01610133

TAF KMGM
Valido dal 29 a 00 ore il 30 a 00 ore UTC


282338Z 2900/2924 VRB03KT P6SM OVC200
FM291400 09006KT P6SM OVC035
FM291500 10007KT P6SM OVC009
PROB30 2915/2918 4SM SHRA BR OVC004
FM291800 10007KT 6SM SHRA BR OVC008
PROB30 2918/2923 4SM TSRA BR OVC004CB
FM292300 12011KT 6SM SHRA BR OVC007
PROB30 2923/2924 4SM TSRA BR OVC004CB
FIR KZTL / America del Nord



MetMap, La meteo Aeronautica in un colpo d'occhio ! - Copyright ORBIFLY Dicembre 2007 - Disclaimer

ORBIFLY MET'MAP TEAM :

Programmazione e sviluppo : Alexandra Zaïnal
Concezione : Baudouin d'Aumeries
Aiuto per la programmazione : Marc-Olivier Méhu
Supporto tecnico e logistico : Manuel Goepfert
Aiuto per la traduzione : Arnaldo La Scala

Contatto : metmap@orbifly.com




FONTI E CREDITI :

   NOAA       Earth
Advisory